sensor_id;sensor_type;location;lat;lon;timestamp;temperature;humidity
33903;DHT22;20194;50.950;5.346;2023-06-10T00:01:24;23.90;1.00
33903;DHT22;20194;50.950;5.346;2023-06-10T00:03:50;23.80;1.00
33903;DHT22;20194;50.950;5.346;2023-06-10T00:06:17;23.70;1.00
33903;DHT22;20194;50.950;5.346;2023-06-10T00:08:43;23.50;1.00
33903;DHT22;20194;50.950;5.346;2023-06-10T00:11:09;23.60;1.00
33903;DHT22;20194;50.950;5.346;2023-06-10T00:13:35;23.80;1.00
33903;DHT22;20194;50.950;5.346;2023-06-10T00:16:02;23.70;1.00
33903;DHT22;20194;50.950;5.346;2023-06-10T00:18:28;23.80;1.00
33903;DHT22;20194;50.950;5.346;2023-06-10T00:20:57;23.90;1.00
33903;DHT22;20194;50.950;5.346;2023-06-10T00:23:22;23.90;1.00
33903;DHT22;20194;50.950;5.346;2023-06-10T00:25:50;23.90;1.00
33903;DHT22;20194;50.950;5.346;2023-06-10T00:28:16;23.90;1.00
33903;DHT22;20194;50.950;5.346;2023-06-10T00:30:41;23.80;1.00
33903;DHT22;20194;50.950;5.346;2023-06-10T00:33:08;23.80;1.00
33903;DHT22;20194;50.950;5.346;2023-06-10T00:35:33;23.80;1.00
33903;DHT22;20194;50.950;5.346;2023-06-10T00:37:59;23.60;1.00
33903;DHT22;20194;50.950;5.346;2023-06-10T00:40:25;23.50;1.00
33903;DHT22;20194;50.950;5.346;2023-06-10T00:42:50;23.60;1.00
33903;DHT22;20194;50.950;5.346;2023-06-10T00:45:16;23.60;1.00
33903;DHT22;20194;50.950;5.346;2023-06-10T00:47:42;23.60;1.00
33903;DHT22;20194;50.950;5.346;2023-06-10T00:50:07;23.50;1.00
33903;DHT22;20194;50.950;5.346;2023-06-10T00:52:35;23.40;1.00
33903;DHT22;20194;50.950;5.346;2023-06-10T00:55:01;23.30;1.00
33903;DHT22;20194;50.950;5.346;2023-06-10T00:57:27;23.20;1.00
33903;DHT22;20194;50.950;5.346;2023-06-10T00:59:54;23.20;1.00
33903;DHT22;20194;50.950;5.346;2023-06-10T01:02:20;23.20;1.00
33903;DHT22;20194;50.950;5.346;2023-06-10T01:04:46;23.20;1.00
33903;DHT22;20194;50.950;5.346;2023-06-10T01:07:18;23.20;1.00
33903;DHT22;20194;50.950;5.346;2023-06-10T01:09:59;23.00;1.00
33903;DHT22;20194;50.950;5.346;2023-06-10T01:12:31;23.10;1.00
33903;DHT22;20194;50.950;5.346;2023-06-10T01:15:00;23.10;1.00
33903;DHT22;20194;50.950;5.346;2023-06-10T01:17:27;23.10;1.00
33903;DHT22;20194;50.950;5.346;2023-06-10T01:19:56;23.10;1.00
33903;DHT22;20194;50.950;5.346;2023-06-10T01:22:26;23.10;1.00
33903;DHT22;20194;50.950;5.346;2023-06-10T01:24:58;23.10;1.00
33903;DHT22;20194;50.950;5.346;2023-06-10T01:27:28;22.90;1.00
33903;DHT22;20194;50.950;5.346;2023-06-10T01:30:08;22.80;1.00
33903;DHT22;20194;50.950;5.346;2023-06-10T01:32:44;22.90;1.00
33903;DHT22;20194;50.950;5.346;2023-06-10T01:35:11;22.90;1.00
33903;DHT22;20194;50.950;5.346;2023-06-10T01:37:39;22.80;1.00
33903;DHT22;20194;50.950;5.346;2023-06-10T01:40:06;22.90;1.00
33903;DHT22;20194;50.950;5.346;2023-06-10T01:42:33;22.90;1.00
33903;DHT22;20194;50.950;5.346;2023-06-10T01:44:59;22.90;1.00
33903;DHT22;20194;50.950;5.346;2023-06-10T01:47:24;22.90;1.00
33903;DHT22;20194;50.950;5.346;2023-06-10T01:49:50;22.70;1.00
33903;DHT22;20194;50.950;5.346;2023-06-10T01:52:16;22.60;1.00
33903;DHT22;20194;50.950;5.346;2023-06-10T01:54:42;22.60;1.00
33903;DHT22;20194;50.950;5.346;2023-06-10T01:57:08;22.60;1.00
33903;DHT22;20194;50.950;5.346;2023-06-10T01:59:34;22.60;1.00
33903;DHT22;20194;50.950;5.346;2023-06-10T02:01:59;22.60;1.00
33903;DHT22;20194;50.950;5.346;2023-06-10T02:04:25;22.70;1.00
33903;DHT22;20194;50.950;5.346;2023-06-10T02:06:51;22.60;1.00
33903;DHT22;20194;50.950;5.346;2023-06-10T02:09:17;22.60;1.00
33903;DHT22;20194;50.950;5.346;2023-06-10T02:11:44;22.40;1.00
33903;DHT22;20194;50.950;5.346;2023-06-10T02:14:10;22.40;1.00
33903;DHT22;20194;50.950;5.346;2023-06-10T02:16:35;22.40;1.00
33903;DHT22;20194;50.950;5.346;2023-06-10T02:19:01;22.40;1.00
33903;DHT22;20194;50.950;5.346;2023-06-10T02:21:28;22.40;1.00
33903;DHT22;20194;50.950;5.346;2023-06-10T02:23:54;22.40;1.00
33903;DHT22;20194;50.950;5.346;2023-06-10T02:26:20;22.30;1.00
33903;DHT22;20194;50.950;5.346;2023-06-10T02:28:46;22.30;1.00
33903;DHT22;20194;50.950;5.346;2023-06-10T02:31:13;22.20;1.00
33903;DHT22;20194;50.950;5.346;2023-06-10T02:33:39;22.20;1.00
33903;DHT22;20194;50.950;5.346;2023-06-10T02:36:06;22.20;1.00
33903;DHT22;20194;50.950;5.346;2023-06-10T02:38:31;22.20;1.00
33903;DHT22;20194;50.950;5.346;2023-06-10T02:40:57;22.10;1.00
33903;DHT22;20194;50.950;5.346;2023-06-10T02:43:23;22.10;1.00
33903;DHT22;20194;50.950;5.346;2023-06-10T02:45:48;22.10;1.00
33903;DHT22;20194;50.950;5.346;2023-06-10T02:48:14;22.10;1.00
33903;DHT22;20194;50.950;5.346;2023-06-10T02:50:40;22.10;1.00
33903;DHT22;20194;50.950;5.346;2023-06-10T02:53:06;22.20;1.00
33903;DHT22;20194;50.950;5.346;2023-06-10T02:55:31;22.20;1.00
33903;DHT22;20194;50.950;5.346;2023-06-10T02:57:57;22.20;1.00
33903;DHT22;20194;50.950;5.346;2023-06-10T03:00:24;22.20;1.00
33903;DHT22;20194;50.950;5.346;2023-06-10T03:02:50;22.20;1.00
33903;DHT22;20194;50.950;5.346;2023-06-10T03:05:16;22.10;1.00
33903;DHT22;20194;50.950;5.346;2023-06-10T03:07:42;22.10;1.00
33903;DHT22;20194;50.950;5.346;2023-06-10T03:10:08;22.10;1.00
33903;DHT22;20194;50.950;5.346;2023-06-10T03:12:34;22.00;1.00
33903;DHT22;20194;50.950;5.346;2023-06-10T03:14:59;22.00;1.00
33903;DHT22;20194;50.950;5.346;2023-06-10T03:17:25;21.80;1.00
33903;DHT22;20194;50.950;5.346;2023-06-10T03:19:51;21.80;1.00
33903;DHT22;20194;50.950;5.346;2023-06-10T03:22:17;21.90;1.00
33903;DHT22;20194;50.950;5.346;2023-06-10T03:24:42;21.80;1.00
33903;DHT22;20194;50.950;5.346;2023-06-10T03:27:12;21.80;1.00
33903;DHT22;20194;50.950;5.346;2023-06-10T03:29:39;21.90;1.00
33903;DHT22;20194;50.950;5.346;2023-06-10T03:32:05;21.90;1.00
33903;DHT22;20194;50.950;5.346;2023-06-10T03:34:31;21.90;1.00
33903;DHT22;20194;50.950;5.346;2023-06-10T03:36:57;21.90;1.00
33903;DHT22;20194;50.950;5.346;2023-06-10T03:39:23;21.90;1.00
33903;DHT22;20194;50.950;5.346;2023-06-10T03:41:50;21.90;1.00
33903;DHT22;20194;50.950;5.346;2023-06-10T03:44:16;21.90;1.00
33903;DHT22;20194;50.950;5.346;2023-06-10T03:46:41;21.70;1.20
33903;DHT22;20194;50.950;5.346;2023-06-10T03:49:07;21.80;1.00
33903;DHT22;20194;50.950;5.346;2023-06-10T03:51:34;21.80;1.00
33903;DHT22;20194;50.950;5.346;2023-06-10T03:54:01;21.90;1.00
33903;DHT22;20194;50.950;5.346;2023-06-10T03:56:26;22.00;1.00
33903;DHT22;20194;50.950;5.346;2023-06-10T03:58:54;22.10;1.00
33903;DHT22;20194;50.950;5.346;2023-06-10T04:01:20;22.00;1.00
33903;DHT22;20194;50.950;5.346;2023-06-10T04:03:47;22.00;1.00
33903;DHT22;20194;50.950;5.346;2023-06-10T04:06:14;22.00;1.00
33903;DHT22;20194;50.950;5.346;2023-06-10T04:08:41;22.00;1.00
33903;DHT22;20194;50.950;5.346;2023-06-10T04:11:08;22.00;1.00
33903;DHT22;20194;50.950;5.346;2023-06-10T04:13:34;22.00;1.00
33903;DHT22;20194;50.950;5.346;2023-06-10T04:16:00;21.80;2.00
33903;DHT22;20194;50.950;5.346;2023-06-10T04:18:26;21.70;3.80
33903;DHT22;20194;50.950;5.346;2023-06-10T04:20:51;21.70;1.40
33903;DHT22;20194;50.950;5.346;2023-06-10T04:23:17;21.70;1.80
33903;DHT22;20194;50.950;5.346;2023-06-10T04:25:43;21.70;3.80
33903;DHT22;20194;50.950;5.346;2023-06-10T04:28:09;21.60;4.90
33903;DHT22;20194;50.950;5.346;2023-06-10T04:30:35;21.50;6.90
33903;DHT22;20194;50.950;5.346;2023-06-10T04:33:01;21.50;7.60
33903;DHT22;20194;50.950;5.346;2023-06-10T04:35:27;21.50;2.70
33903;DHT22;20194;50.950;5.346;2023-06-10T04:37:53;21.50;7.40
33903;DHT22;20194;50.950;5.346;2023-06-10T04:40:19;21.50;9.20
33903;DHT22;20194;50.950;5.346;2023-06-10T04:42:45;21.50;9.20
33903;DHT22;20194;50.950;5.346;2023-06-10T04:45:11;21.40;10.60
33903;DHT22;20194;50.950;5.346;2023-06-10T04:47:36;21.50;9.40
33903;DHT22;20194;50.950;5.346;2023-06-10T04:50:02;21.50;10.30
33903;DHT22;20194;50.950;5.346;2023-06-10T04:52:29;21.60;8.70
33903;DHT22;20194;50.950;5.346;2023-06-10T04:54:56;21.60;8.70
33903;DHT22;20194;50.950;5.346;2023-06-10T04:57:21;21.70;6.40
33903;DHT22;20194;50.950;5.346;2023-06-10T04:59:47;21.80;5.60
33903;DHT22;20194;50.950;5.346;2023-06-10T05:02:13;21.90;3.40
33903;DHT22;20194;50.950;5.346;2023-06-10T05:04:39;21.80;6.50
33903;DHT22;20194;50.950;5.346;2023-06-10T05:07:05;21.90;7.00
33903;DHT22;20194;50.950;5.346;2023-06-10T05:09:31;22.00;5.70
33903;DHT22;20194;50.950;5.346;2023-06-10T05:11:56;22.00;5.30
33903;DHT22;20194;50.950;5.346;2023-06-10T05:14:22;21.90;5.80
33903;DHT22;20194;50.950;5.346;2023-06-10T05:16:48;22.00;4.70
33903;DHT22;20194;50.950;5.346;2023-06-10T05:19:14;21.70;8.60
33903;DHT22;20194;50.950;5.346;2023-06-10T05:21:41;21.50;11.90
33903;DHT22;20194;50.950;5.346;2023-06-10T05:24:07;21.40;14.40
33903;DHT22;20194;50.950;5.346;2023-06-10T05:26:33;21.60;11.40
33903;DHT22;20194;50.950;5.346;2023-06-10T05:29:03;21.70;10.30
33903;DHT22;20194;50.950;5.346;2023-06-10T05:31:28;21.80;8.50
33903;DHT22;20194;50.950;5.346;2023-06-10T05:33:54;22.00;7.10
33903;DHT22;20194;50.950;5.346;2023-06-10T05:36:20;22.10;5.40
33903;DHT22;20194;50.950;5.346;2023-06-10T05:38:46;22.20;2.90
33903;DHT22;20194;50.950;5.346;2023-06-10T05:41:13;22.30;1.00
33903;DHT22;20194;50.950;5.346;2023-06-10T05:43:38;22.50;1.00
33903;DHT22;20194;50.950;5.346;2023-06-10T05:46:04;22.50;1.00
33903;DHT22;20194;50.950;5.346;2023-06-10T05:48:30;22.60;1.00
33903;DHT22;20194;50.950;5.346;2023-06-10T05:50:56;22.60;1.00
33903;DHT22;20194;50.950;5.346;2023-06-10T05:53:22;22.60;1.00
33903;DHT22;20194;50.950;5.346;2023-06-10T05:55:47;22.90;1.00
33903;DHT22;20194;50.950;5.346;2023-06-10T05:58:14;23.20;1.00
33903;DHT22;20194;50.950;5.346;2023-06-10T06:00:40;23.40;1.00
33903;DHT22;20194;50.950;5.346;2023-06-10T06:03:09;23.50;1.00
33903;DHT22;20194;50.950;5.346;2023-06-10T06:05:36;23.60;1.00
33903;DHT22;20194;50.950;5.346;2023-06-10T06:08:06;23.80;1.00
33903;DHT22;20194;50.950;5.346;2023-06-10T06:10:32;23.90;1.00
33903;DHT22;20194;50.950;5.346;2023-06-10T06:12:57;24.00;1.00
33903;DHT22;20194;50.950;5.346;2023-06-10T06:15:23;24.30;1.00
33903;DHT22;20194;50.950;5.346;2023-06-10T06:17:49;24.60;1.00
33903;DHT22;20194;50.950;5.346;2023-06-10T06:20:15;24.80;1.00
33903;DHT22;20194;50.950;5.346;2023-06-10T06:22:41;24.80;1.00
33903;DHT22;20194;50.950;5.346;2023-06-10T06:25:07;24.70;1.00
33903;DHT22;20194;50.950;5.346;2023-06-10T06:27:33;25.00;1.00
33903;DHT22;20194;50.950;5.346;2023-06-10T06:29:59;25.20;1.00
33903;DHT22;20194;50.950;5.346;2023-06-10T06:32:25;25.30;1.00
33903;DHT22;20194;50.950;5.346;2023-06-10T06:34:53;25.40;1.00
33903;DHT22;20194;50.950;5.346;2023-06-10T06:37:23;25.30;1.00
33903;DHT22;20194;50.950;5.346;2023-06-10T06:39:53;25.20;1.00
33903;DHT22;20194;50.950;5.346;2023-06-10T06:42:19;25.30;1.00
33903;DHT22;20194;50.950;5.346;2023-06-10T06:44:46;25.40;1.00
33903;DHT22;20194;50.950;5.346;2023-06-10T06:47:12;25.70;1.00
33903;DHT22;20194;50.950;5.346;2023-06-10T06:49:38;25.60;1.00
33903;DHT22;20194;50.950;5.346;2023-06-10T06:52:04;25.60;1.00
33903;DHT22;20194;50.950;5.346;2023-06-10T06:54:30;25.80;1.00
33903;DHT22;20194;50.950;5.346;2023-06-10T06:56:56;25.80;1.00
33903;DHT22;20194;50.950;5.346;2023-06-10T06:59:22;25.90;1.00
33903;DHT22;20194;50.950;5.346;2023-06-10T07:01:48;25.70;1.00
33903;DHT22;20194;50.950;5.346;2023-06-10T07:04:15;25.70;1.00
33903;DHT22;20194;50.950;5.346;2023-06-10T07:06:41;25.50;1.00
33903;DHT22;20194;50.950;5.346;2023-06-10T07:09:10;25.70;1.00
33903;DHT22;20194;50.950;5.346;2023-06-10T07:11:36;25.80;1.00
33903;DHT22;20194;50.950;5.346;2023-06-10T07:14:02;26.00;1.00
33903;DHT22;20194;50.950;5.346;2023-06-10T07:16:27;26.30;1.00
33903;DHT22;20194;50.950;5.346;2023-06-10T07:18:53;26.60;1.00
33903;DHT22;20194;50.950;5.346;2023-06-10T07:21:19;26.70;1.00
33903;DHT22;20194;50.950;5.346;2023-06-10T07:23:45;26.70;1.00
33903;DHT22;20194;50.950;5.346;2023-06-10T07:26:11;26.50;1.00
33903;DHT22;20194;50.950;5.346;2023-06-10T07:28:42;26.50;1.00
33903;DHT22;20194;50.950;5.346;2023-06-10T07:31:08;26.40;1.00
33903;DHT22;20194;50.950;5.346;2023-06-10T07:33:34;26.30;1.00
33903;DHT22;20194;50.950;5.346;2023-06-10T07:35:59;26.70;1.00
33903;DHT22;20194;50.950;5.346;2023-06-10T07:38:26;27.10;1.00
33903;DHT22;20194;50.950;5.346;2023-06-10T07:40:52;27.40;1.00
33903;DHT22;20194;50.950;5.346;2023-06-10T07:43:18;27.30;1.00
33903;DHT22;20194;50.950;5.346;2023-06-10T07:45:44;27.60;1.00
33903;DHT22;20194;50.950;5.346;2023-06-10T07:48:10;27.60;1.00
33903;DHT22;20194;50.950;5.346;2023-06-10T07:50:36;27.80;1.00
33903;DHT22;20194;50.950;5.346;2023-06-10T07:53:02;27.70;1.00
33903;DHT22;20194;50.950;5.346;2023-06-10T07:55:28;27.70;1.00
33903;DHT22;20194;50.950;5.346;2023-06-10T07:57:54;28.10;1.00
33903;DHT22;20194;50.950;5.346;2023-06-10T08:00:20;28.50;1.00
33903;DHT22;20194;50.950;5.346;2023-06-10T08:02:46;28.40;1.00
33903;DHT22;20194;50.950;5.346;2023-06-10T08:05:12;28.30;1.00
33903;DHT22;20194;50.950;5.346;2023-06-10T08:07:39;28.30;99.90
33903;DHT22;20194;50.950;5.346;2023-06-10T08:10:06;28.50;99.90
33903;DHT22;20194;50.950;5.346;2023-06-10T08:12:32;28.90;99.90
33903;DHT22;20194;50.950;5.346;2023-06-10T08:14:59;28.40;99.90
33903;DHT22;20194;50.950;5.346;2023-06-10T08:17:24;28.00;1.00
33903;DHT22;20194;50.950;5.346;2023-06-10T08:19:50;28.30;1.00
33903;DHT22;20194;50.950;5.346;2023-06-10T08:22:16;28.50;99.90
33903;DHT22;20194;50.950;5.346;2023-06-10T08:24:42;28.50;99.90
33903;DHT22;20194;50.950;5.346;2023-06-10T08:27:07;28.50;99.90
33903;DHT22;20194;50.950;5.346;2023-06-10T08:29:33;27.90;99.90
33903;DHT22;20194;50.950;5.346;2023-06-10T08:32:00;28.10;1.00
33903;DHT22;20194;50.950;5.346;2023-06-10T08:34:26;28.50;99.90
33903;DHT22;20194;50.950;5.346;2023-06-10T08:36:51;28.70;99.90
33903;DHT22;20194;50.950;5.346;2023-06-10T08:39:22;28.80;99.90
33903;DHT22;20194;50.950;5.346;2023-06-10T08:44:29;29.20;99.90
33903;DHT22;20194;50.950;5.346;2023-06-10T08:46:59;29.40;99.90
33903;DHT22;20194;50.950;5.346;2023-06-10T08:49:26;29.60;99.90
33903;DHT22;20194;50.950;5.346;2023-06-10T08:52:00;29.70;99.90
33903;DHT22;20194;50.950;5.346;2023-06-10T08:54:31;29.80;99.90
33903;DHT22;20194;50.950;5.346;2023-06-10T08:57:02;30.20;99.90
33903;DHT22;20194;50.950;5.346;2023-06-10T08:59:31;29.90;1.00
33903;DHT22;20194;50.950;5.346;2023-06-10T09:01:57;30.10;99.90
33903;DHT22;20194;50.950;5.346;2023-06-10T09:04:24;29.90;99.90
33903;DHT22;20194;50.950;5.346;2023-06-10T09:06:51;30.10;1.00
33903;DHT22;20194;50.950;5.346;2023-06-10T09:09:18;29.90;1.00
33903;DHT22;20194;50.950;5.346;2023-06-10T09:11:46;29.90;99.90
33903;DHT22;20194;50.950;5.346;2023-06-10T09:14:12;30.00;1.00
33903;DHT22;20194;50.950;5.346;2023-06-10T09:16:38;30.50;1.00
33903;DHT22;20194;50.950;5.346;2023-06-10T09:19:05;30.40;10.50
33903;DHT22;20194;50.950;5.346;2023-06-10T09:21:36;30.30;1.00
33903;DHT22;20194;50.950;5.346;2023-06-10T09:24:02;30.70;99.90
33903;DHT22;20194;50.950;5.346;2023-06-10T09:26:29;30.40;29.40
33903;DHT22;20194;50.950;5.346;2023-06-10T09:29:04;29.90;1.00
33903;DHT22;20194;50.950;5.346;2023-06-10T09:31:31;29.90;99.90
33903;DHT22;20194;50.950;5.346;2023-06-10T09:34:14;29.80;1.00
33903;DHT22;20194;50.950;5.346;2023-06-10T09:36:42;30.50;99.90
33903;DHT22;20194;50.950;5.346;2023-06-10T09:39:17;30.40;1.00
33903;DHT22;20194;50.950;5.346;2023-06-10T09:41:44;30.20;99.90
33903;DHT22;20194;50.950;5.346;2023-06-10T09:44:17;30.10;99.90
33903;DHT22;20194;50.950;5.346;2023-06-10T09:46:46;30.40;1.00
33903;DHT22;20194;50.950;5.346;2023-06-10T09:49:12;30.20;1.00
33903;DHT22;20194;50.950;5.346;2023-06-10T09:51:49;30.30;99.90
33903;DHT22;20194;50.950;5.346;2023-06-10T09:54:15;30.30;92.00
33903;DHT22;20194;50.950;5.346;2023-06-10T09:56:41;30.50;99.90
33903;DHT22;20194;50.950;5.346;2023-06-10T09:59:08;30.50;99.90
33903;DHT22;20194;50.950;5.346;2023-06-10T10:01:34;30.70;99.90
33903;DHT22;20194;50.950;5.346;2023-06-10T10:04:00;30.90;1.00
33903;DHT22;20194;50.950;5.346;2023-06-10T10:06:27;30.80;1.00
33903;DHT22;20194;50.950;5.346;2023-06-10T10:08:53;30.60;99.90
33903;DHT22;20194;50.950;5.346;2023-06-10T10:11:20;30.40;1.00
33903;DHT22;20194;50.950;5.346;2023-06-10T10:13:49;30.70;99.90
33903;DHT22;20194;50.950;5.346;2023-06-10T10:16:18;30.60;1.00
33903;DHT22;20194;50.950;5.346;2023-06-10T10:19:07;30.30;99.90
33903;DHT22;20194;50.950;5.346;2023-06-10T10:21:40;30.70;99.90
33903;DHT22;20194;50.950;5.346;2023-06-10T10:24:20;30.50;99.90
33903;DHT22;20194;50.950;5.346;2023-06-10T10:26:48;30.00;99.90
33903;DHT22;20194;50.950;5.346;2023-06-10T10:29:20;29.90;99.90
33903;DHT22;20194;50.950;5.346;2023-06-10T10:31:51;30.20;1.00
33903;DHT22;20194;50.950;5.346;2023-06-10T10:34:32;30.50;1.00
33903;DHT22;20194;50.950;5.346;2023-06-10T10:36:59;30.60;1.00
33903;DHT22;20194;50.950;5.346;2023-06-10T10:39:25;30.50;99.90
33903;DHT22;20194;50.950;5.346;2023-06-10T10:41:54;30.70;99.90
33903;DHT22;20194;50.950;5.346;2023-06-10T10:44:20;30.80;99.90
33903;DHT22;20194;50.950;5.346;2023-06-10T10:46:50;30.60;99.90
33903;DHT22;20194;50.950;5.346;2023-06-10T10:49:17;30.70;99.90
33903;DHT22;20194;50.950;5.346;2023-06-10T10:52:02;30.50;82.90
33903;DHT22;20194;50.950;5.346;2023-06-10T10:54:35;30.30;99.90
33903;DHT22;20194;50.950;5.346;2023-06-10T11:02:17;30.80;1.00
33903;DHT22;20194;50.950;5.346;2023-06-10T11:04:47;30.90;99.90
33903;DHT22;20194;50.950;5.346;2023-06-10T11:07:13;31.20;99.90
33903;DHT22;20194;50.950;5.346;2023-06-10T11:15:32;30.80;1.00
33903;DHT22;20194;50.950;5.346;2023-06-10T11:20:54;31.40;1.00
33903;DHT22;20194;50.950;5.346;2023-06-10T11:31:25;31.20;1.00
33903;DHT22;20194;50.950;5.346;2023-06-10T11:33:59;31.20;1.00
33903;DHT22;20194;50.950;5.346;2023-06-10T11:36:26;31.00;99.90
33903;DHT22;20194;50.950;5.346;2023-06-10T11:38:58;31.10;1.00
33903;DHT22;20194;50.950;5.346;2023-06-10T11:41:25;30.90;1.00
33903;DHT22;20194;50.950;5.346;2023-06-10T11:43:52;30.80;1.00
33903;DHT22;20194;50.950;5.346;2023-06-10T11:46:18;30.80;92.50
33903;DHT22;20194;50.950;5.346;2023-06-10T11:48:55;30.80;99.90
33903;DHT22;20194;50.950;5.346;2023-06-10T11:51:24;31.00;99.90
33903;DHT22;20194;50.950;5.346;2023-06-10T11:53:50;30.70;1.00
33903;DHT22;20194;50.950;5.346;2023-06-10T11:56:21;30.90;1.00
33903;DHT22;20194;50.950;5.346;2023-06-10T11:58:55;31.10;1.00
33903;DHT22;20194;50.950;5.346;2023-06-10T12:01:23;31.00;1.00
33903;DHT22;20194;50.950;5.346;2023-06-10T12:04:05;31.00;99.90
33903;DHT22;20194;50.950;5.346;2023-06-10T12:09:04;30.90;99.90
33903;DHT22;20194;50.950;5.346;2023-06-10T12:11:29;31.00;99.90
33903;DHT22;20194;50.950;5.346;2023-06-10T12:13:55;30.60;99.90
33903;DHT22;20194;50.950;5.346;2023-06-10T12:16:21;30.50;1.00
33903;DHT22;20194;50.950;5.346;2023-06-10T12:18:47;30.60;50.30
33903;DHT22;20194;50.950;5.346;2023-06-10T12:21:23;30.70;37.60
33903;DHT22;20194;50.950;5.346;2023-06-10T12:24:09;30.60;1.00
33903;DHT22;20194;50.950;5.346;2023-06-10T12:26:42;30.80;99.90
33903;DHT22;20194;50.950;5.346;2023-06-10T12:29:20;30.90;99.90
33903;DHT22;20194;50.950;5.346;2023-06-10T12:31:58;30.70;99.90
33903;DHT22;20194;50.950;5.346;2023-06-10T12:34:32;30.60;99.90
33903;DHT22;20194;50.950;5.346;2023-06-10T12:36:58;30.60;99.90
33903;DHT22;20194;50.950;5.346;2023-06-10T12:39:24;30.70;99.90
33903;DHT22;20194;50.950;5.346;2023-06-10T12:41:51;30.70;99.90
33903;DHT22;20194;50.950;5.346;2023-06-10T12:44:17;31.20;99.90
33903;DHT22;20194;50.950;5.346;2023-06-10T12:46:43;31.10;99.90
33903;DHT22;20194;50.950;5.346;2023-06-10T12:49:19;31.10;99.90
33903;DHT22;20194;50.950;5.346;2023-06-10T12:51:45;31.00;99.90
33903;DHT22;20194;50.950;5.346;2023-06-10T12:54:11;30.80;99.90
33903;DHT22;20194;50.950;5.346;2023-06-10T12:56:36;30.70;79.40
33903;DHT22;20194;50.950;5.346;2023-06-10T12:59:02;30.70;1.00
33903;DHT22;20194;50.950;5.346;2023-06-10T13:01:28;30.70;1.00
33903;DHT22;20194;50.950;5.346;2023-06-10T13:03:55;30.70;1.00
33903;DHT22;20194;50.950;5.346;2023-06-10T13:06:20;30.80;1.00
33903;DHT22;20194;50.950;5.346;2023-06-10T13:08:46;30.80;1.00
33903;DHT22;20194;50.950;5.346;2023-06-10T13:11:14;30.70;1.00
33903;DHT22;20194;50.950;5.346;2023-06-10T13:13:40;30.80;1.00
33903;DHT22;20194;50.950;5.346;2023-06-10T13:16:05;30.90;1.00
33903;DHT22;20194;50.950;5.346;2023-06-10T13:18:32;30.80;1.00
33903;DHT22;20194;50.950;5.346;2023-06-10T13:21:04;30.70;1.00
33903;DHT22;20194;50.950;5.346;2023-06-10T13:23:29;30.60;1.00
33903;DHT22;20194;50.950;5.346;2023-06-10T13:25:57;30.80;1.00
33903;DHT22;20194;50.950;5.346;2023-06-10T13:28:23;31.00;1.00
33903;DHT22;20194;50.950;5.346;2023-06-10T13:30:48;31.20;1.00
33903;DHT22;20194;50.950;5.346;2023-06-10T13:33:14;31.20;1.00
33903;DHT22;20194;50.950;5.346;2023-06-10T13:35:40;30.90;1.00
33903;DHT22;20194;50.950;5.346;2023-06-10T13:38:07;30.90;1.00
33903;DHT22;20194;50.950;5.346;2023-06-10T13:40:33;30.80;1.00
33903;DHT22;20194;50.950;5.346;2023-06-10T13:42:58;30.90;1.00
33903;DHT22;20194;50.950;5.346;2023-06-10T13:45:24;30.80;1.00
33903;DHT22;20194;50.950;5.346;2023-06-10T13:47:50;31.00;13.10
33903;DHT22;20194;50.950;5.346;2023-06-10T13:50:16;30.80;1.00
33903;DHT22;20194;50.950;5.346;2023-06-10T13:52:42;31.00;3.30
33903;DHT22;20194;50.950;5.346;2023-06-10T13:55:08;31.10;1.00
33903;DHT22;20194;50.950;5.346;2023-06-10T13:57:34;31.00;1.00
33903;DHT22;20194;50.950;5.346;2023-06-10T14:00:00;31.20;1.00
33903;DHT22;20194;50.950;5.346;2023-06-10T14:02:26;31.20;1.00
33903;DHT22;20194;50.950;5.346;2023-06-10T14:04:52;31.00;1.00
33903;DHT22;20194;50.950;5.346;2023-06-10T14:07:17;30.80;1.00
33903;DHT22;20194;50.950;5.346;2023-06-10T14:09:43;30.80;1.00
33903;DHT22;20194;50.950;5.346;2023-06-10T14:12:09;30.90;13.20
33903;DHT22;20194;50.950;5.346;2023-06-10T14:14:36;30.70;1.00
33903;DHT22;20194;50.950;5.346;2023-06-10T14:17:02;30.70;1.00
33903;DHT22;20194;50.950;5.346;2023-06-10T14:19:29;30.90;45.80
33903;DHT22;20194;50.950;5.346;2023-06-10T14:21:55;31.10;99.90
33903;DHT22;20194;50.950;5.346;2023-06-10T14:24:21;31.20;90.70
33903;DHT22;20194;50.950;5.346;2023-06-10T14:26:47;31.30;1.00
33903;DHT22;20194;50.950;5.346;2023-06-10T14:29:13;31.20;1.00
33903;DHT22;20194;50.950;5.346;2023-06-10T14:31:40;31.20;1.00
33903;DHT22;20194;50.950;5.346;2023-06-10T14:34:06;31.30;1.00
33903;DHT22;20194;50.950;5.346;2023-06-10T14:36:33;30.90;1.00
33903;DHT22;20194;50.950;5.346;2023-06-10T14:38:59;30.90;1.00
33903;DHT22;20194;50.950;5.346;2023-06-10T14:41:25;30.60;1.00
33903;DHT22;20194;50.950;5.346;2023-06-10T14:43:51;30.60;1.00
33903;DHT22;20194;50.950;5.346;2023-06-10T14:46:17;30.60;1.00
33903;DHT22;20194;50.950;5.346;2023-06-10T14:48:43;30.60;1.00
33903;DHT22;20194;50.950;5.346;2023-06-10T14:51:08;30.70;1.00
33903;DHT22;20194;50.950;5.346;2023-06-10T14:53:34;30.70;1.00
33903;DHT22;20194;50.950;5.346;2023-06-10T14:56:00;30.80;1.00
33903;DHT22;20194;50.950;5.346;2023-06-10T14:58:25;30.80;1.00
33903;DHT22;20194;50.950;5.346;2023-06-10T15:00:51;31.00;1.00
33903;DHT22;20194;50.950;5.346;2023-06-10T15:03:17;30.90;1.00
33903;DHT22;20194;50.950;5.346;2023-06-10T15:05:43;30.90;99.90
33903;DHT22;20194;50.950;5.346;2023-06-10T15:08:08;30.90;99.90
33903;DHT22;20194;50.950;5.346;2023-06-10T15:10:34;30.90;99.90
33903;DHT22;20194;50.950;5.346;2023-06-10T15:13:00;31.00;99.90
33903;DHT22;20194;50.950;5.346;2023-06-10T15:15:26;31.00;1.00
33903;DHT22;20194;50.950;5.346;2023-06-10T15:17:52;30.80;1.00
33903;DHT22;20194;50.950;5.346;2023-06-10T15:20:18;30.80;99.90
33903;DHT22;20194;50.950;5.346;2023-06-10T15:22:44;30.90;99.90
33903;DHT22;20194;50.950;5.346;2023-06-10T15:25:10;30.80;99.90
33903;DHT22;20194;50.950;5.346;2023-06-10T15:27:35;30.70;99.90
33903;DHT22;20194;50.950;5.346;2023-06-10T15:30:01;30.50;99.90
33903;DHT22;20194;50.950;5.346;2023-06-10T15:32:27;30.50;99.90
33903;DHT22;20194;50.950;5.346;2023-06-10T15:34:53;30.50;99.90
33903;DHT22;20194;50.950;5.346;2023-06-10T15:37:19;30.50;99.90
33903;DHT22;20194;50.950;5.346;2023-06-10T15:39:46;30.40;1.00
33903;DHT22;20194;50.950;5.346;2023-06-10T15:42:12;30.50;1.00
33903;DHT22;20194;50.950;5.346;2023-06-10T15:44:38;30.60;6.60
33903;DHT22;20194;50.950;5.346;2023-06-10T15:47:04;30.40;1.00
33903;DHT22;20194;50.950;5.346;2023-06-10T15:49:30;30.40;99.90
33903;DHT22;20194;50.950;5.346;2023-06-10T15:51:56;30.40;99.90
33903;DHT22;20194;50.950;5.346;2023-06-10T15:54:22;30.40;99.90
33903;DHT22;20194;50.950;5.346;2023-06-10T15:56:47;30.40;99.90
33903;DHT22;20194;50.950;5.346;2023-06-10T15:59:13;30.40;99.90
33903;DHT22;20194;50.950;5.346;2023-06-10T16:01:39;30.30;99.90
33903;DHT22;20194;50.950;5.346;2023-06-10T16:04:04;30.30;99.90
33903;DHT22;20194;50.950;5.346;2023-06-10T16:06:30;30.20;96.90
33903;DHT22;20194;50.950;5.346;2023-06-10T16:08:56;30.20;99.90